Time;durP1;ratioP1;P1;durP2;ratioP2;P2;SDS_P1;SDS_P2;PMS_P1;PMS_P2;Temp;Humidity;BMP_temperature;BMP_pressure;BME280_temperature;BME280_humidity;BME280_pressure;Samples;Min_cycle;Max_cycle;Signal;HPM_P1;HPM_P2
2021/01/05 00:00:26;;;;;;;2.17;1.30;;;8.30;79.60;;;;;;5113159;28;20052;-42
2021/01/05 00:02:52;;;;;;;3.03;1.70;;;8.30;79.60;;;;;;5113903;28;20062;-43
2021/01/05 00:05:18;;;;;;;1.67;1.33;;;8.30;79.60;;;;;;5113636;28;20047;-43
2021/01/05 00:07:44;;;;;;;2.35;1.70;;;8.30;79.60;;;;;;5113478;28;20071;-43
2021/01/05 00:10:11;;;;;;;1.45;1.25;;;8.30;79.60;;;;;;5113328;28;20132;-44
2021/01/05 00:12:37;;;;;;;1.77;1.20;;;8.30;79.50;;;;;;5113344;28;20483;-48
2021/01/05 00:15:05;;;;;;;2.47;1.63;;;8.30;79.60;;;;;;5113348;28;20140;-47
2021/01/05 00:17:31;;;;;;;2.65;1.33;;;8.30;79.60;;;;;;5113890;27;20071;-43
2021/01/05 00:19:57;;;;;;;3.45;1.85;;;8.30;79.60;;;;;;5113468;28;20043;-44
2021/01/05 00:22:23;;;;;;;1.95;1.40;;;8.30;79.60;;;;;;5113123;28;20059;-44
2021/01/05 00:24:48;;;;;;;2.70;1.40;;;8.30;79.60;;;;;;5113276;28;20050;-47
2021/01/05 00:27:14;;;;;;;3.03;1.65;;;8.30;79.60;;;;;;5113189;28;20105;-46
2021/01/05 00:29:40;;;;;;;3.90;1.80;;;8.30;79.60;;;;;;5113187;28;20050;-47
2021/01/05 00:32:14;;;;;;;2.47;1.60;;;8.30;79.60;;;;;;5112974;28;20419;-47
2021/01/05 00:34:41;;;;;;;1.65;1.38;;;8.30;79.60;;;;;;5113330;28;20048;-45
2021/01/05 00:37:07;;;;;;;1.77;1.50;;;8.30;79.60;;;;;;5113095;28;20559;-45
2021/01/05 00:39:33;;;;;;;2.45;1.50;;;8.30;79.60;;;;;;5113499;28;20047;-46
2021/01/05 00:41:59;;;;;;;2.78;1.60;;;8.30;79.60;;;;;;5112270;28;20047;-42
2021/01/05 00:44:25;;;;;;;1.60;1.48;;;8.30;79.60;;;;;;5113198;28;20576;-43
2021/01/05 00:46:50;;;;;;;1.92;1.42;;;8.30;79.60;;;;;;5113188;28;20373;-44
2021/01/05 00:49:16;;;;;;;2.40;1.42;;;8.30;79.60;;;;;;5112998;28;20108;-47
2021/01/05 00:51:42;;;;;;;1.60;1.50;;;8.30;79.60;;;;;;5113283;28;20043;-44
2021/01/05 00:54:08;;;;;;;2.50;1.50;;;8.30;79.60;;;;;;5112654;28;20044;-48
2021/01/05 00:56:34;;;;;;;2.35;1.70;;;8.30;79.60;;;;;;5112496;28;20048;-43
2021/01/05 00:58:59;;;;;;;2.28;1.50;;;8.20;79.50;;;;;;5113103;28;20075;-46
2021/01/05 01:01:25;;;;;;;1.80;1.40;;;8.30;79.60;;;;;;5112482;28;20040;-45
2021/01/05 01:03:51;;;;;;;2.40;1.52;;;8.30;79.60;;;;;;5113038;28;20108;-43
2021/01/05 01:06:18;;;;;;;1.73;1.45;;;8.30;79.60;;;;;;5113061;28;20070;-43
2021/01/05 01:08:44;;;;;;;2.80;1.67;;;8.30;79.60;;;;;;5113314;28;20043;-42
2021/01/05 01:11:11;;;;;;;2.53;1.67;;;8.30;79.60;;;;;;5112488;28;20096;-44
2021/01/05 01:13:37;;;;;;;1.92;1.27;;;8.30;79.60;;;;;;5112913;28;20086;-44
2021/01/05 01:16:04;;;;;;;5.40;2.17;;;8.30;79.60;;;;;;5112120;28;20067;-45
2021/01/05 01:18:29;;;;;;;2.10;1.83;;;8.30;79.60;;;;;;5113007;28;20054;-44
2021/01/05 01:20:56;;;;;;;1.60;1.50;;;8.30;79.60;;;;;;5112785;28;20059;-44
2021/01/05 01:23:21;;;;;;;2.35;1.52;;;8.30;79.60;;;;;;5112935;28;20055;-44
2021/01/05 01:25:48;;;;;;;1.90;1.52;;;8.30;79.60;;;;;;5112782;28;20075;-44
2021/01/05 01:28:14;;;;;;;1.70;1.40;;;8.30;79.60;;;;;;5102695;28;20047;-42
2021/01/05 01:30:39;;;;;;;2.10;1.58;;;8.30;79.60;;;;;;5112726;28;20494;-42
2021/01/05 01:33:06;;;;;;;2.08;1.50;;;8.30;79.60;;;;;;5112109;28;20047;-44
2021/01/05 01:35:31;;;;;;;3.80;1.60;;;8.20;79.50;;;;;;5112870;28;20046;-48
2021/01/05 01:37:57;;;;;;;2.25;1.63;;;8.30;79.60;;;;;;5112466;28;20047;-43
2021/01/05 01:40:36;;;;;;;2.08;1.50;;;8.30;79.60;;;;;;5112589;28;20547;-45
2021/01/05 01:43:03;;;;;;;2.65;1.60;;;8.30;79.60;;;;;;5111930;28;20048;-43
2021/01/05 01:45:29;;;;;;;2.08;1.63;;;8.30;79.60;;;;;;5112391;28;20051;-47
2021/01/05 01:47:56;;;;;;;2.40;1.85;;;8.30;79.60;;;;;;5112643;28;20043;-45
2021/01/05 01:50:29;;;;;;;2.72;1.85;;;8.20;79.60;;;;;;5112797;28;20125;-44
2021/01/05 01:53:21;;;;;;;1.90;1.45;;;8.20;79.50;;;;;;5112479;28;20111;-47
2021/01/05 01:56:19;;;;;;;2.10;1.50;;;8.30;79.60;;;;;;5115570;28;20620;-46
2021/01/05 01:59:12;;;;;;;3.10;1.60;;;8.20;79.60;;;;;;5115290;28;20044;-46
2021/01/05 02:01:41;;;;;;;2.60;1.42;;;8.30;79.60;;;;;;5115958;28;20403;-47
2021/01/05 02:04:19;;;;;;;1.73;1.40;;;8.20;79.60;;;;;;5115950;28;20474;-44
2021/01/05 02:07:15;;;;;;;2.03;1.60;;;8.20;79.60;;;;;;5116317;28;20048;-46
2021/01/05 02:09:56;;;;;;;1.90;1.65;;;8.20;79.60;;;;;;5115557;28;20507;-45
2021/01/05 02:12:40;;;;;;;2.47;1.80;;;8.20;79.60;;;;;;5115762;28;20044;-45
2021/01/05 02:15:28;;;;;;;2.13;1.77;;;8.20;79.60;;;;;;5115311;28;20491;-46
2021/01/05 02:18:10;;;;;;;2.42;1.60;;;8.20;79.60;;;;;;5116062;27;20044;-44
2021/01/05 02:20:50;;;;;;;2.00;1.63;;;8.20;79.60;;;;;;5115533;28;20101;-44
2021/01/05 02:23:32;;;;;;;1.80;1.50;;;8.20;79.60;;;;;;5115873;28;20044;-45
2021/01/05 02:26:26;;;;;;;2.13;1.35;;;8.20;79.60;;;;;;5099860;28;20127;-45
2021/01/05 02:28:57;;;;;;;2.97;1.90;;;8.20;79.60;;;;;;5115132;28;20048;-46
2021/01/05 02:31:39;;;;;;;2.17;1.50;;;8.20;79.60;;;;;;5115447;28;20056;-45
2021/01/05 02:34:18;;;;;;;2.33;1.67;;;8.20;79.60;;;;;;5115407;28;20056;-47
2021/01/05 02:36:51;;;;;;;3.08;1.88;;;8.20;79.60;;;;;;5115746;28;20055;-44
2021/01/05 02:39:47;;;;;;;2.10;1.45;;;8.20;79.70;;;;;;5114912;28;20093;-43
2021/01/05 02:42:31;;;;;;;2.17;1.38;;;8.20;79.70;;;;;;5113988;28;20048;-45
2021/01/05 02:45:15;;;;;;;1.77;1.60;;;8.20;79.70;;;;;;5114654;28;20047;-43
2021/01/05 02:48:18;;;;;;;2.10;1.45;;;8.20;79.70;;;;;;5115420;28;20055;-43
2021/01/05 02:51:14;;;;;;;1.75;1.50;;;8.30;79.80;;;;;;5098006;28;20057;-42
2021/01/05 02:54:03;;;;;;;2.47;1.65;;;8.20;79.70;;;;;;5115173;28;20043;-43
2021/01/05 02:57:06;;;;;;;2.20;1.60;;;8.20;79.70;;;;;;5051976;28;20049;-45
2021/01/05 03:00:09;;;;;;;3.42;2.15;;;8.20;79.70;;;;;;5051709;28;20080;-43
2021/01/05 03:03:08;;;;;;;1.67;1.30;;;8.20;79.70;;;;;;5051882;28;20059;-44
2021/01/05 03:05:34;;;;;;;3.95;1.80;;;8.20;79.70;;;;;;5051862;28;20048;-43
2021/01/05 03:08:00;;;;;;;2.47;1.70;;;8.20;79.80;;;;;;5051838;28;20044;-44
2021/01/05 03:10:50;;;;;;;1.83;1.63;;;8.30;79.80;;;;;;5052076;28;20064;-45
2021/01/05 03:13:43;;;;;;;2.75;1.90;;;8.20;79.80;;;;;;5051175;28;20044;-43
2021/01/05 03:16:17;;;;;;;2.90;1.90;;;8.20;79.80;;;;;;5051484;28;20041;-42
2021/01/05 03:18:55;;;;;;;3.67;1.98;;;8.20;79.80;;;;;;5051490;28;20068;-44
2021/01/05 03:21:30;;;;;;;2.47;1.52;;;8.20;79.80;;;;;;5051733;28;20057;-43
2021/01/05 03:23:59;;;;;;;1.85;1.52;;;8.20;79.80;;;;;;5051514;28;20045;-49
2021/01/05 03:26:35;;;;;;;3.33;2.00;;;8.20;79.80;;;;;;5051409;28;20053;-48
2021/01/05 03:29:01;;;;;;;2.13;1.67;;;8.20;79.80;;;;;;5051295;28;20048;-45
2021/01/05 03:31:32;;;;;;;2.78;1.60;;;8.20;79.80;;;;;;5051371;28;20131;-46
2021/01/05 03:34:00;;;;;;;2.38;1.70;;;8.20;79.80;;;;;;5089794;28;20039;-43
2021/01/05 03:36:26;;;;;;;2.53;1.85;;;8.20;79.80;;;;;;5114218;28;20048;-47
2021/01/05 03:38:52;;;;;;;1.90;1.70;;;8.20;79.80;;;;;;5114051;28;20047;-44
2021/01/05 03:41:18;;;;;;;3.28;1.65;;;8.20;79.80;;;;;;5114222;28;20069;-44
2021/01/05 03:43:43;;;;;;;1.83;1.42;;;8.20;79.90;;;;;;5113886;28;20035;-43
2021/01/05 03:46:11;;;;;;;4.65;1.98;;;8.20;79.80;;;;;;5113440;28;20050;-43
2021/01/05 03:48:37;;;;;;;1.73;1.38;;;8.20;79.90;;;;;;5114074;28;20406;-43
2021/01/05 03:51:02;;;;;;;1.73;1.63;;;8.20;79.80;;;;;;5114068;28;20135;-43
2021/01/05 03:53:28;;;;;;;2.00;1.70;;;8.20;79.90;;;;;;5113770;28;20054;-43
2021/01/05 03:55:55;;;;;;;2.10;1.70;;;8.20;79.90;;;;;;5113530;28;20122;-43
2021/01/05 03:58:21;;;;;;;3.70;2.00;;;8.20;79.90;;;;;;5113810;28;20440;-43
2021/01/05 04:00:47;;;;;;;2.20;1.70;;;8.20;79.80;;;;;;5114059;28;20079;-44
2021/01/05 04:03:13;;;;;;;1.40;1.30;;;8.20;79.90;;;;;;5113039;28;20056;-43
2021/01/05 04:05:38;;;;;;;2.67;1.80;;;8.20;79.80;;;;;;5113719;28;20048;-45
2021/01/05 04:08:04;;;;;;;1.83;1.65;;;8.20;79.90;;;;;;5113589;28;20147;-45
2021/01/05 04:10:30;;;;;;;2.65;1.83;;;8.20;79.90;;;;;;5113454;28;20035;-46
2021/01/05 04:12:56;;;;;;;2.53;1.85;;;8.30;80.00;;;;;;5113696;28;20055;-48
2021/01/05 04:15:28;;;;;;;2.10;1.60;;;8.20;79.90;;;;;;5113089;28;20047;-44
2021/01/05 04:17:56;;;;;;;2.08;1.55;;;8.20;79.90;;;;;;5112441;28;20043;-44
2021/01/05 04:20:23;;;;;;;2.60;1.95;;;8.20;79.90;;;;;;5113780;28;20056;-44
2021/01/05 04:22:49;;;;;;;2.30;1.70;;;8.20;79.90;;;;;;5113401;28;20050;-47
2021/01/05 04:25:17;;;;;;;2.35;1.85;;;8.20;79.90;;;;;;5113531;28;20051;-46
2021/01/05 04:27:44;;;;;;;2.85;1.95;;;8.20;79.90;;;;;;5113101;28;20051;-44
2021/01/05 04:30:22;;;;;;;3.15;1.77;;;8.20;79.90;;;;;;5113491;28;20043;-45
2021/01/05 04:32:48;;;;;;;1.90;1.70;;;8.20;79.90;;;;;;5112514;28;20578;-44
2021/01/05 04:35:16;;;;;;;2.35;1.65;;;8.20;79.90;;;;;;5113381;28;20123;-43
2021/01/05 04:37:42;;;;;;;1.90;1.40;;;8.20;79.90;;;;;;5112783;28;20044;-43
2021/01/05 04:40:19;;;;;;;2.50;1.90;;;8.20;79.80;;;;;;5113093;28;20120;-43
2021/01/05 04:42:45;;;;;;;2.72;1.77;;;8.20;79.80;;;;;;5112983;28;20044;-45
2021/01/05 04:45:21;;;;;;;3.83;1.85;;;8.20;79.90;;;;;;5113000;28;20444;-44
2021/01/05 04:47:52;;;;;;;2.00;1.55;;;8.20;79.90;;;;;;5112786;28;20043;-44
2021/01/05 04:50:39;;;;;;;2.38;1.40;;;8.20;79.80;;;;;;5113113;28;20051;-45
2021/01/05 04:53:31;;;;;;;1.75;1.42;;;8.20;79.90;;;;;;5113318;28;20047;-43
2021/01/05 04:56:10;;;;;;;1.88;1.63;;;8.20;79.90;;;;;;5113299;28;20502;-42
2021/01/05 04:58:58;;;;;;;2.53;2.03;;;8.20;79.90;;;;;;5112742;28;20447;-43
2021/01/05 05:01:31;;;;;;;1.90;1.65;;;8.20;79.90;;;;;;5113408;28;20047;-44
2021/01/05 05:04:03;;;;;;;1.60;1.50;;;8.20;79.90;;;;;;5112841;28;20044;-44
2021/01/05 05:06:39;;;;;;;2.35;1.58;;;8.20;79.90;;;;;;5112948;28;20043;-43
2021/01/05 05:09:25;;;;;;;2.00;1.50;;;8.20;79.90;;;;;;5112742;28;20036;-43
2021/01/05 05:12:04;;;;;;;4.30;1.80;;;8.20;79.90;;;;;;5113208;28;20143;-45
2021/01/05 05:14:43;;;;;;;2.60;1.77;;;8.20;79.90;;;;;;5112809;28;20131;-44
2021/01/05 05:18:00;;;;;;;2.13;1.58;;;8.20;79.90;;;;;;5092980;28;20545;-43
2021/01/05 05:20:53;;;;;;;1.83;1.67;;;8.20;79.80;;;;;;5064880;28;20466;-44
2021/01/05 05:23:56;;;;;;;2.75;1.58;;;8.20;79.90;;;;;;5069884;28;20183;-44
2021/01/05 05:26:45;;;;;;;1.58;1.40;;;8.20;79.80;;;;;;5070011;28;20059;-43
2021/01/05 05:29:29;;;;;;;2.95;1.90;;;8.20;79.80;;;;;;5071453;28;20854;-44
2021/01/05 05:31:59;;;;;;;3.83;2.00;;;8.20;79.80;;;;;;5073784;28;20044;-44
2021/01/05 05:34:29;;;;;;;2.53;1.60;;;8.20;79.80;;;;;;5073487;28;20045;-42
2021/01/05 05:37:10;;;;;;;2.80;1.80;;;8.20;79.90;;;;;;5057155;28;20548;-43
2021/01/05 05:40:00;;;;;;;1.77;1.40;;;8.20;79.90;;;;;;5073895;28;20192;-39
2021/01/05 05:42:38;;;;;;;2.35;1.73;;;8.20;79.90;;;;;;5062019;28;20098;-44
2021/01/05 05:45:12;;;;;;;3.05;1.90;;;8.20;79.90;;;;;;5073542;28;20036;-45
2021/01/05 05:47:43;;;;;;;3.00;1.75;;;8.20;79.90;;;;;;5073766;28;20075;-43
2021/01/05 05:50:22;;;;;;;1.95;1.63;;;8.20;79.90;;;;;;5072927;28;20094;-46
2021/01/05 05:52:58;;;;;;;2.67;1.65;;;8.20;79.80;;;;;;5073114;28;20048;-48
2021/01/05 05:55:29;;;;;;;1.83;1.35;;;8.20;79.90;;;;;;5078244;28;20048;-45
2021/01/05 05:57:57;;;;;;;2.80;1.77;;;8.20;79.90;;;;;;5095902;28;20476;-46
2021/01/05 06:00:37;;;;;;;2.42;1.75;;;8.20;79.80;;;;;;5108426;28;20047;-42
2021/01/05 06:03:05;;;;;;;1.95;1.58;;;8.20;79.80;;;;;;5115965;28;20052;-45
2021/01/05 06:05:37;;;;;;;1.70;1.50;;;8.20;79.80;;;;;;5116180;28;20052;-43
2021/01/05 06:08:05;;;;;;;3.28;1.77;;;8.20;79.80;;;;;;5115738;28;20046;-43
2021/01/05 06:10:31;;;;;;;2.10;1.58;;;8.20;79.90;;;;;;5116161;28;20048;-45
2021/01/05 06:12:57;;;;;;;3.45;1.67;;;8.20;79.90;;;;;;5115617;28;20050;-42
2021/01/05 06:15:23;;;;;;;1.80;1.60;;;8.20;79.90;;;;;;5116093;28;20052;-46
2021/01/05 06:17:49;;;;;;;2.05;1.65;;;8.20;79.90;;;;;;5115738;28;20043;-43
2021/01/05 06:20:16;;;;;;;1.95;1.70;;;8.20;79.80;;;;;;5115766;28;20123;-46
2021/01/05 06:22:41;;;;;;;2.58;1.92;;;8.20;79.90;;;;;;5115202;28;20103;-45
2021/01/05 06:25:08;;;;;;;2.15;1.80;;;8.20;79.90;;;;;;5115333;28;20047;-42
2021/01/05 06:27:34;;;;;;;2.10;1.80;;;8.20;79.90;;;;;;5115997;27;20048;-43
2021/01/05 06:30:00;;;;;;;2.25;1.58;;;8.20;79.90;;;;;;5115235;28;20052;-45
2021/01/05 06:32:25;;;;;;;1.60;1.38;;;8.10;79.90;;;;;;5115589;28;20086;-47
2021/01/05 06:34:51;;;;;;;2.00;1.70;;;8.20;79.90;;;;;;5115242;28;20044;-45
2021/01/05 06:37:17;;;;;;;2.55;1.90;;;8.20;79.90;;;;;;5115093;28;20039;-48
2021/01/05 06:39:43;;;;;;;2.35;1.80;;;8.20;79.90;;;;;;5114568;28;20047;-45
2021/01/05 06:42:09;;;;;;;1.52;1.42;;;8.20;79.90;;;;;;5115392;28;20048;-43
2021/01/05 06:44:35;;;;;;;2.05;1.70;;;8.20;79.90;;;;;;5114883;28;20075;-45
2021/01/05 06:47:01;;;;;;;2.20;1.50;;;8.20;79.90;;;;;;5115556;28;20075;-43
2021/01/05 06:49:28;;;;;;;2.30;1.52;;;8.20;79.90;;;;;;5115250;28;20044;-47
2021/01/05 06:51:55;;;;;;;3.20;1.67;;;8.20;80.00;;;;;;5115273;27;20441;-43
2021/01/05 06:54:21;;;;;;;2.67;1.65;;;8.20;79.90;;;;;;5114452;28;20067;-44
2021/01/05 06:56:50;;;;;;;2.10;1.60;;;8.20;79.90;;;;;;5115256;28;20074;-47
2021/01/05 06:59:16;;;;;;;2.28;1.77;;;8.20;79.90;;;;;;5115211;28;20047;-45
2021/01/05 07:01:58;;;;;;;3.45;1.63;;;8.20;79.90;;;;;;5115163;28;20453;-43
2021/01/05 07:04:24;;;;;;;2.95;1.60;;;8.20;79.90;;;;;;5115089;28;20077;-43
2021/01/05 07:06:50;;;;;;;1.90;1.65;;;8.20;79.90;;;;;;5114314;28;20440;-47
2021/01/05 07:09:18;;;;;;;2.08;1.70;;;8.20;79.90;;;;;;5115025;28;20043;-44
2021/01/05 07:11:44;;;;;;;1.63;1.40;;;8.20;79.90;;;;;;5114529;27;20185;-48
2021/01/05 07:14:15;;;;;;;4.13;1.70;;;8.20;79.90;;;;;;5114888;28;20039;-49
2021/01/05 07:16:41;;;;;;;2.05;1.75;;;8.20;79.90;;;;;;5107621;28;20131;-43
2021/01/05 07:19:06;;;;;;;1.83;1.45;;;8.20;79.90;;;;;;5114603;28;20129;-44
2021/01/05 07:21:32;;;;;;;1.95;1.60;;;8.20;79.90;;;;;;5114544;28;20138;-47
2021/01/05 07:23:58;;;;;;;2.50;1.75;;;8.20;79.90;;;;;;5114271;28;20476;-50
2021/01/05 07:26:24;;;;;;;2.20;1.63;;;8.20;79.90;;;;;;5114430;28;20472;-45
2021/01/05 07:28:50;;;;;;;2.00;1.60;;;8.20;79.90;;;;;;5114299;28;20051;-48
2021/01/05 07:31:16;;;;;;;2.28;1.60;;;8.20;79.90;;;;;;5114039;28;20052;-48
2021/01/05 07:33:42;;;;;;;1.95;1.67;;;8.20;79.90;;;;;;5113957;28;20063;-45
2021/01/05 07:36:20;;;;;;;3.05;1.70;;;8.20;79.80;;;;;;5113583;28;20043;-47
2021/01/05 07:38:46;;;;;;;2.38;1.83;;;8.20;79.90;;;;;;5112446;28;20123;-44
2021/01/05 07:41:11;;;;;;;1.85;1.60;;;8.20;79.90;;;;;;5114019;28;20134;-45
2021/01/05 07:43:37;;;;;;;2.50;2.03;;;8.20;79.90;;;;;;5114008;28;20048;-43
2021/01/05 07:46:03;;;;;;;3.40;1.73;;;8.20;80.30;;;;;;5114259;27;20062;-46
2021/01/05 07:48:29;;;;;;;2.42;1.60;;;8.20;79.90;;;;;;5113728;28;20048;-46
2021/01/05 07:50:54;;;;;;;2.17;1.70;;;8.20;79.90;;;;;;5113939;28;20105;-44
2021/01/05 07:53:20;;;;;;;2.40;1.85;;;8.20;79.90;;;;;;5112625;28;20051;-43
2021/01/05 07:55:46;;;;;;;3.10;1.88;;;8.20;79.80;;;;;;5113593;28;20043;-43
2021/01/05 07:58:11;;;;;;;2.17;1.80;;;8.10;79.90;;;;;;5113003;28;20047;-44
2021/01/05 08:00:37;;;;;;;1.88;1.67;;;8.20;79.90;;;;;;5113098;28;20050;-45
2021/01/05 08:03:03;;;;;;;1.95;1.67;;;8.20;79.90;;;;;;5112836;28;20100;-43
2021/01/05 08:05:29;;;;;;;2.00;1.80;;;8.20;79.90;;;;;;5112940;28;20096;-46
2021/01/05 08:07:56;;;;;;;1.60;1.40;;;8.20;79.90;;;;;;5113619;28;20415;-46
2021/01/05 08:10:29;;;;;;;1.63;1.52;;;8.20;79.90;;;;;;5113211;28;20508;-43
2021/01/05 08:12:56;;;;;;;3.08;1.98;;;8.20;79.90;;;;;;5113718;28;20502;-45
2021/01/05 08:15:24;;;;;;;2.13;1.60;;;8.10;79.90;;;;;;5113833;28;20130;-44
2021/01/05 08:17:50;;;;;;;2.05;1.65;;;8.20;80.60;;;;;;5113811;28;20051;-46
2021/01/05 08:20:18;;;;;;;2.83;1.80;;;8.20;79.90;;;;;;5113329;28;20043;-44
2021/01/05 08:22:44;;;;;;;2.05;1.67;;;8.20;79.90;;;;;;5113368;28;20411;-42
2021/01/05 08:25:11;;;;;;;2.08;1.52;;;8.10;79.90;;;;;;5113021;28;20054;-43
2021/01/05 08:27:36;;;;;;;3.10;1.70;;;8.20;79.90;;;;;;5113334;28;20048;-46
2021/01/05 08:30:04;;;;;;;2.10;1.67;;;8.20;79.90;;;;;;5113260;28;20054;-43
2021/01/05 08:32:29;;;;;;;2.35;1.58;;;8.20;79.90;;;;;;5113445;28;20453;-43
2021/01/05 08:34:55;;;;;;;2.42;1.90;;;8.20;79.90;;;;;;5113721;28;20040;-44
2021/01/05 08:37:21;;;;;;;3.72;1.67;;;8.20;79.90;;;;;;5113212;28;20138;-45
2021/01/05 08:39:47;;;;;;;2.22;1.55;;;8.20;79.90;;;;;;5113437;28;20043;-44
2021/01/05 08:42:13;;;;;;;2.03;1.70;;;8.20;79.90;;;;;;5113316;28;20503;-45
2021/01/05 08:44:38;;;;;;;1.88;1.60;;;8.10;79.90;;;;;;5112797;28;20071;-46
2021/01/05 08:47:04;;;;;;;1.85;1.65;;;8.20;79.90;;;;;;5113402;28;20480;-49
2021/01/05 08:49:32;;;;;;;2.40;1.77;;;8.20;79.90;;;;;;5113249;28;20472;-42
2021/01/05 08:51:58;;;;;;;2.40;1.55;;;8.20;79.90;;;;;;5113436;28;20052;-46
2021/01/05 08:54:23;;;;;;;2.17;1.70;;;8.10;79.90;;;;;;5113308;28;20461;-48
2021/01/05 08:56:58;;;;;;;2.10;1.67;;;8.20;79.90;;;;;;5113292;28;20051;-47
2021/01/05 08:59:23;;;;;;;1.60;1.42;;;8.20;79.90;;;;;;5113108;28;20495;-49
2021/01/05 09:01:49;;;;;;;1.70;1.50;;;8.20;79.90;;;;;;5113129;28;20119;-45
2021/01/05 09:04:15;;;;;;;1.83;1.50;;;8.20;79.90;;;;;;5115695;28;20044;-45
2021/01/05 09:06:45;;;;;;;1.48;1.38;;;8.20;79.90;;;;;;5117514;28;20130;-45
2021/01/05 09:09:11;;;;;;;1.70;1.40;;;8.10;79.90;;;;;;5116674;27;20550;-45
2021/01/05 09:11:37;;;;;;;3.85;1.67;;;8.10;79.90;;;;;;5116715;28;20180;-44
2021/01/05 09:14:02;;;;;;;2.08;1.63;;;8.10;79.90;;;;;;5117362;28;20487;-47
2021/01/05 09:16:32;;;;;;;2.42;1.60;;;8.20;80.00;;;;;;5113229;28;20423;-46
2021/01/05 09:18:59;;;;;;;2.17;1.58;;;8.20;80.00;;;;;;5111209;27;20043;-47
2021/01/05 09:21:27;;;;;;;2.45;1.52;;;8.20;79.90;;;;;;5116881;28;20048;-47
2021/01/05 09:23:55;;;;;;;1.77;1.35;;;8.20;79.90;;;;;;5115763;28;20491;-46
2021/01/05 09:26:24;;;;;;;3.63;1.77;;;8.20;79.90;;;;;;5116769;28;20050;-46
2021/01/05 09:28:50;;;;;;;1.48;1.30;;;8.10;79.90;;;;;;5116951;28;20396;-46
2021/01/05 09:31:17;;;;;;;2.25;1.60;;;8.10;79.90;;;;;;5115901;28;20510;-44
2021/01/05 09:33:44;;;;;;;1.98;1.80;;;8.20;79.90;;;;;;5114107;28;20150;-46
2021/01/05 09:36:11;;;;;;;1.50;1.30;;;8.20;79.90;;;;;;5116798;28;20053;-46
2021/01/05 09:38:39;;;;;;;2.08;1.58;;;8.20;79.90;;;;;;5116280;28;20054;-41
2021/01/05 09:41:07;;;;;;;1.65;1.50;;;8.20;79.90;;;;;;5116594;28;20503;-44
2021/01/05 09:43:33;;;;;;;1.27;1.17;;;8.20;80.00;;;;;;5115971;28;20054;-45
2021/01/05 09:45:58;;;;;;;2.35;1.50;;;8.10;79.90;;;;;;5115913;28;20047;-47
2021/01/05 09:48:24;;;;;;;1.65;1.40;;;8.20;79.90;;;;;;5116624;28;20399;-46
2021/01/05 09:50:50;;;;;;;2.45;1.65;;;8.20;79.90;;;;;;5116299;28;20074;-45
2021/01/05 09:53:16;;;;;;;1.85;1.40;;;8.20;80.60;;;;;;5115089;28;20051;-44
2021/01/05 09:55:41;;;;;;;1.90;1.70;;;8.20;79.90;;;;;;5116536;28;20448;-45
2021/01/05 09:58:07;;;;;;;2.13;1.65;;;8.20;79.90;;;;;;5116369;28;20043;-41
2021/01/05 10:00:33;;;;;;;1.40;1.30;;;8.10;79.90;;;;;;5115638;28;20164;-44
2021/01/05 10:02:59;;;;;;;1.95;1.50;;;8.20;79.90;;;;;;5116318;28;20130;-45
2021/01/05 10:05:25;;;;;;;2.95;1.60;;;8.20;79.90;;;;;;5115714;28;20044;-43
2021/01/05 10:07:51;;;;;;;2.22;1.55;;;8.10;79.90;;;;;;5115943;28;20059;-45
2021/01/05 10:10:26;;;;;;;2.30;1.58;;;8.10;79.90;;;;;;5115926;28;20372;-42
2021/01/05 10:12:52;;;;;;;1.80;1.40;;;8.20;79.90;;;;;;5116037;27;20124;-48
2021/01/05 10:15:21;;;;;;;2.85;1.30;;;8.20;79.90;;;;;;5113966;28;20040;-46
2021/01/05 10:17:47;;;;;;;2.63;1.33;;;8.10;79.90;;;;;;5115940;28;20521;-48
2021/01/05 10:20:16;;;;;;;2.28;1.40;;;8.20;79.90;;;;;;5114378;28;20134;-44
2021/01/05 10:22:42;;;;;;;3.05;2.13;;;8.10;79.90;;;;;;5115756;28;20117;-46
2021/01/05 10:25:10;;;;;;;2.25;1.67;;;8.20;79.90;;;;;;5115126;28;20040;-46
2021/01/05 10:27:36;;;;;;;3.28;1.83;;;8.20;79.90;;;;;;5115674;28;20043;-44
2021/01/05 10:30:05;;;;;;;2.08;1.30;;;8.20;80.00;;;;;;5115361;28;20047;-45
2021/01/05 10:32:31;;;;;;;1.70;1.60;;;8.20;79.90;;;;;;5095098;28;20060;-49
2021/01/05 10:34:57;;;;;;;3.05;1.77;;;8.10;79.90;;;;;;5094922;28;20506;-47
2021/01/05 10:37:22;;;;;;;1.65;1.48;;;8.10;79.90;;;;;;5095263;28;20106;-44
2021/01/05 10:39:48;;;;;;;2.10;1.75;;;8.20;79.90;;;;;;5102411;28;20134;-43
2021/01/05 10:42:14;;;;;;;3.33;1.75;;;8.20;79.90;;;;;;5114729;28;20402;-46
2021/01/05 10:44:40;;;;;;;3.58;1.55;;;8.20;80.00;;;;;;5114108;28;20139;-46
2021/01/05 10:47:06;;;;;;;1.67;1.58;;;8.20;79.90;;;;;;5114188;28;20130;-41
2021/01/05 10:49:32;;;;;;;1.95;1.52;;;8.20;79.90;;;;;;5114769;28;20600;-45
2021/01/05 10:52:00;;;;;;;3.38;1.85;;;8.10;79.90;;;;;;5114544;28;20119;-46
2021/01/05 10:54:28;;;;;;;1.98;1.73;;;8.10;79.90;;;;;;5113463;28;20054;-46
2021/01/05 10:56:58;;;;;;;2.38;1.75;;;8.20;79.90;;;;;;5114710;28;20147;-46
2021/01/05 10:59:25;;;;;;;2.47;1.88;;;8.20;80.60;;;;;;5114217;28;20044;-45
2021/01/05 11:01:51;;;;;;;2.65;1.65;;;8.10;79.90;;;;;;5114267;28;20135;-45
2021/01/05 11:04:17;;;;;;;2.67;1.55;;;8.20;79.90;;;;;;5114183;28;20120;-41
2021/01/05 11:07:00;;;;;;;2.60;1.60;;;8.20;79.90;;;;;;5114446;27;20492;-43
2021/01/05 11:09:27;;;;;;;1.85;1.73;;;8.20;79.90;;;;;;5113618;27;20101;-44
2021/01/05 11:11:58;;;;;;;2.63;1.83;;;8.20;79.90;;;;;;5114401;28;20051;-43
2021/01/05 11:14:24;;;;;;;2.55;1.80;;;8.10;79.90;;;;;;5113664;28;20048;-42
2021/01/05 11:16:50;;;;;;;2.63;1.80;;;8.10;79.90;;;;;;5113761;28;20044;-43
2021/01/05 11:19:16;;;;;;;2.30;1.77;;;8.20;79.90;;;;;;5114533;28;20083;-41
2021/01/05 11:21:57;;;;;;;2.22;1.80;;;8.20;79.90;;;;;;5114718;28;20471;-45
2021/01/05 11:24:23;;;;;;;3.80;2.00;;;8.20;79.90;;;;;;5114426;28;20051;-44
2021/01/05 11:26:49;;;;;;;5.15;2.22;;;8.20;79.90;;;;;;5114370;28;20147;-42
2021/01/05 11:29:16;;;;;;;3.38;1.70;;;8.10;79.90;;;;;;5114039;28;20067;-44
2021/01/05 11:31:42;;;;;;;2.58;1.83;;;8.10;79.90;;;;;;5114182;28;20114;-41
2021/01/05 11:34:08;;;;;;;2.72;2.22;;;8.20;79.90;;;;;;5114209;28;20138;-42
2021/01/05 11:36:34;;;;;;;2.40;1.77;;;8.20;79.90;;;;;;5114374;28;20475;-43
2021/01/05 11:39:03;;;;;;;2.35;1.80;;;8.10;79.90;;;;;;5114064;28;20067;-45
2021/01/05 11:41:37;;;;;;;3.08;1.83;;;8.20;79.90;;;;;;5114422;28;20093;-43
2021/01/05 11:44:05;;;;;;;2.35;1.58;;;8.20;79.90;;;;;;5114370;28;20052;-49
2021/01/05 11:46:31;;;;;;;7.20;2.22;;;8.20;79.90;;;;;;5113753;28;20047;-48
2021/01/05 11:48:57;;;;;;;2.25;1.63;;;8.20;79.90;;;;;;5113855;28;20050;-46
2021/01/05 11:51:27;;;;;;;3.83;1.98;;;8.20;79.90;;;;;;5114324;27;20131;-47
2021/01/05 11:53:53;;;;;;;2.72;1.98;;;8.20;79.90;;;;;;5114113;28;20052;-42
2021/01/05 11:56:27;;;;;;;2.78;1.75;;;8.10;79.80;;;;;;5114184;27;20074;-42
2021/01/05 11:58:53;;;;;;;2.97;2.00;;;8.10;79.80;;;;;;5113988;28;20053;-44
2021/01/05 12:01:19;;;;;;;5.32;1.92;;;8.10;79.80;;;;;;5113594;28;20114;-46
2021/01/05 12:03:45;;;;;;;2.40;1.75;;;8.10;79.80;;;;;;5113937;28;20543;-43
2021/01/05 12:06:12;;;;;;;2.22;1.80;;;8.20;79.80;;;;;;5114171;28;20051;-44
2021/01/05 12:08:38;;;;;;;4.60;1.98;;;8.10;79.80;;;;;;5113886;27;20043;-43
2021/01/05 12:11:04;;;;;;;2.13;1.70;;;8.20;79.80;;;;;;5113840;28;20051;-44
2021/01/05 12:13:30;;;;;;;3.17;2.20;;;8.20;79.80;;;;;;5113950;28;20048;-47
2021/01/05 12:15:55;;;;;;;2.63;1.60;;;8.10;79.80;;;;;;5113394;28;20195;-41
2021/01/05 12:18:21;;;;;;;3.83;2.17;;;8.10;79.80;;;;;;5109547;28;20403;-42
2021/01/05 12:20:47;;;;;;;2.38;1.98;;;8.10;80.40;;;;;;5104907;28;20043;-43
2021/01/05 12:23:12;;;;;;;3.35;1.92;;;8.10;79.80;;;;;;5113115;28;20043;-47
2021/01/05 12:25:41;;;;;;;2.97;1.73;;;8.10;79.80;;;;;;5113053;28;20047;-45
2021/01/05 12:28:07;;;;;;;2.53;1.83;;;8.20;79.80;;;;;;5113072;28;20043;-46
2021/01/05 12:30:33;;;;;;;1.98;1.75;;;8.10;79.80;;;;;;5112220;28;20063;-44
2021/01/05 12:32:58;;;;;;;2.47;1.77;;;8.10;79.80;;;;;;5112734;28;20055;-44
2021/01/05 12:35:25;;;;;;;3.42;2.00;;;8.10;79.80;;;;;;5112841;28;20048;-43
2021/01/05 12:37:51;;;;;;;2.17;1.70;;;8.20;79.80;;;;;;5112509;28;20044;-45
2021/01/05 12:40:17;;;;;;;2.63;1.80;;;8.20;79.80;;;;;;5112489;28;20476;-43
2021/01/05 12:42:42;;;;;;;2.10;1.85;;;8.20;79.80;;;;;;5112598;28;20503;-47
2021/01/05 12:45:10;;;;;;;2.65;2.35;;;8.20;79.90;;;;;;5112575;28;20131;-44
2021/01/05 12:47:35;;;;;;;2.55;1.70;;;8.20;79.80;;;;;;5112152;28;20075;-47
2021/01/05 12:50:01;;;;;;;2.33;1.90;;;8.20;79.90;;;;;;5112920;28;20074;-46
2021/01/05 12:52:27;;;;;;;3.85;1.92;;;8.20;79.80;;;;;;5112288;28;20089;-47
2021/01/05 12:54:52;;;;;;;2.85;1.80;;;8.20;79.90;;;;;;5112848;28;20051;-46
2021/01/05 12:57:19;;;;;;;2.75;2.50;;;8.20;79.90;;;;;;5112560;28;20052;-45
2021/01/05 12:59:46;;;;;;;2.90;1.95;;;8.10;79.80;;;;;;5112403;28;20055;-46
2021/01/05 13:02:28;;;;;;;2.85;1.77;;;8.20;79.90;;;;;;5112945;28;20040;-47
2021/01/05 13:04:54;;;;;;;2.90;1.60;;;8.20;79.90;;;;;;5113304;28;20123;-45
2021/01/05 13:07:21;;;;;;;3.50;2.15;;;8.20;79.90;;;;;;5113439;28;20135;-48
2021/01/05 13:09:52;;;;;;;2.78;1.83;;;8.20;79.80;;;;;;5113162;28;20068;-44
2021/01/05 13:12:18;;;;;;;2.30;1.70;;;8.20;79.80;;;;;;5112655;28;20051;-48